Time;durP1;ratioP1;P1;durP2;ratioP2;P2;SDS_P1;SDS_P2;PMS_P1;PMS_P2;Temp;Humidity;BMP_temperature;BMP_pressure;BME280_temperature;BME280_humidity;BME280_pressure;Samples;Min_cycle;Max_cycle;Signal;HPM_P1;HPM_P2
2022/02/20 00:00:43;;;;;;;10.75;1.73;;;;;;;1.24;86.36;96525.53;2071972;28;20205;-67
2022/02/20 00:01:45;;;;;;;3.97;1.20;;;;;;;1.01;86.81;96494.50;2071292;28;20209;-66
2022/02/20 00:02:48;;;;;;;3.70;1.60;;;;;;;1.19;86.84;96524.84;2071907;28;20208;-66
2022/02/20 00:03:49;;;;;;;4.28;1.35;;;;;;;1.19;86.49;96522.25;2071556;28;20194;-67
2022/02/20 00:04:51;;;;;;;3.85;1.00;;;;;;;1.18;87.04;96528.31;2070294;28;20232;-66
2022/02/20 00:05:53;;;;;;;5.80;1.60;;;;;;;1.14;87.21;96527.56;2072541;28;20194;-67
2022/02/20 00:06:54;;;;;;;9.32;2.13;;;;;;;1.10;87.79;96518.25;2072143;28;20197;-66
2022/02/20 00:07:56;;;;;;;9.20;1.77;;;;;;;1.07;88.02;96520.91;2070234;28;20204;-66
2022/02/20 00:08:58;;;;;;;10.18;2.03;;;;;;;1.05;87.56;96516.72;2070266;28;20679;-66
2022/02/20 00:10:00;;;;;;;8.98;1.17;;;;;;;0.86;87.32;96478.59;2071559;28;20848;-66
2022/02/20 00:11:02;;;;;;;3.25;1.50;;;;;;;1.06;87.38;96518.38;2064144;28;20616;-66
2022/02/20 00:12:03;;;;;;;3.25;1.50;;;;;;;1.03;87.98;96529.66;2072009;28;20372;-67
2022/02/20 00:13:05;;;;;;;4.82;1.58;;;;;;;1.04;87.89;96520.16;2071516;28;20202;-66
2022/02/20 00:14:07;;;;;;;4.15;1.88;;;;;;;1.01;88.10;96502.22;2072018;28;20205;-66
2022/02/20 00:15:08;;;;;;;6.32;1.83;;;;;;;0.87;88.38;96490.63;2072547;28;20295;-66
2022/02/20 00:16:10;;;;;;;11.25;2.55;;;;;;;0.98;88.50;96506.59;2074174;28;20221;-66
2022/02/20 00:17:11;;;;;;;4.90;1.50;;;;;;;0.99;88.50;96504.84;2072672;28;20197;-66
2022/02/20 00:18:13;;;;;;;11.38;2.85;;;;;;;0.97;88.60;96512.63;2071785;28;20588;-67
2022/02/20 00:19:15;;;;;;;5.07;2.17;;;;;;;0.98;89.23;96506.59;2071200;28;20668;-67
2022/02/20 00:20:18;;;;;;;9.30;2.33;;;;;;;0.94;89.04;96499.84;2071851;28;20210;-67
2022/02/20 00:21:19;;;;;;;9.40;1.65;;;;;;;0.95;88.81;96493.78;2068850;28;20260;-67
2022/02/20 00:22:21;;;;;;;4.60;1.35;;;;;;;0.99;88.83;96494.53;2070213;28;20409;-67
2022/02/20 00:23:22;;;;;;;8.75;2.38;;;;;;;0.99;88.95;96489.38;2072583;28;20205;-67
2022/02/20 00:24:24;;;;;;;11.05;1.75;;;;;;;1.00;89.11;96496.25;2071248;28;20229;-67
2022/02/20 00:25:25;;;;;;;6.43;2.35;;;;;;;0.98;89.12;96496.28;2071638;28;20205;-67
2022/02/20 00:26:27;;;;;;;14.45;3.80;;;;;;;0.98;88.68;96492.84;2073999;28;20200;-66
2022/02/20 00:27:30;;;;;;;11.95;2.03;;;;;;;0.98;89.00;96488.53;2073067;28;20225;-67
2022/02/20 00:28:31;;;;;;;6.97;1.40;;;;;;;1.03;88.31;96482.38;2072507;28;20202;-66
2022/02/20 00:29:34;;;;;;;11.55;3.25;;;;;;;0.98;88.85;96491.13;2070163;28;20641;-66
2022/02/20 00:30:36;;;;;;;7.28;1.55;;;;;;;0.98;89.21;96493.69;2071912;28;20212;-67
2022/02/20 00:31:37;;;;;;;5.50;2.22;;;;;;;0.98;88.93;96496.28;2071650;28;20229;-67
2022/02/20 00:32:39;;;;;;;7.82;1.95;;;;;;;1.05;88.43;96491.75;2072300;28;20208;-66
2022/02/20 00:33:40;;;;;;;9.45;1.92;;;;;;;1.01;88.13;96468.69;2075546;28;20204;-66
2022/02/20 00:34:42;;;;;;;4.78;1.40;;;;;;;0.95;88.46;96460.25;2071226;28;20224;-66
2022/02/20 00:35:43;;;;;;;2.63;1.30;;;;;;;1.08;88.38;96472.75;2072541;28;20205;-67
2022/02/20 00:36:45;;;;;;;7.78;1.52;;;;;;;1.07;88.43;96478.81;2071340;28;20200;-66
2022/02/20 00:37:47;;;;;;;3.40;1.42;;;;;;;0.65;88.51;96399.38;2071713;28;20211;-66
2022/02/20 00:38:48;;;;;;;8.13;1.42;;;;;;;1.01;88.28;96459.22;2071405;28;20201;-66
2022/02/20 00:39:49;;;;;;;6.38;1.33;;;;;;;1.08;88.71;96462.44;2071554;28;20434;-66
2022/02/20 00:40:51;;;;;;;2.65;1.45;;;;;;;1.05;89.02;96478.03;2072493;28;20202;-66
2022/02/20 00:41:53;;;;;;;8.10;1.50;;;;;;;1.09;88.90;96482.19;2072292;28;20210;-66
2022/02/20 00:42:54;;;;;;;4.30;1.05;;;;;;;1.11;88.15;96482.97;2071118;28;20228;-66
2022/02/20 00:43:56;;;;;;;6.70;1.70;;;;;;;1.06;88.54;96490.00;2071661;28;20734;-66
2022/02/20 00:44:57;;;;;;;3.65;1.08;;;;;;;1.11;88.41;96501.88;2071556;28;20248;-67
2022/02/20 00:46:00;;;;;;;6.35;1.58;;;;;;;1.11;88.38;96482.97;2072359;28;20560;-66
2022/02/20 00:47:01;;;;;;;11.45;1.60;;;;;;;0.92;88.42;96457.81;2071274;28;20194;-66
2022/02/20 00:48:03;;;;;;;2.40;0.90;;;;;;;1.12;88.18;96492.41;2072222;28;20198;-66
2022/02/20 00:49:04;;;;;;;3.35;1.30;;;;;;;0.98;88.09;96459.31;2071138;28;20384;-66
2022/02/20 00:50:07;;;;;;;1.98;0.95;;;;;;;1.01;88.16;96468.69;2071562;28;20202;-66
2022/02/20 00:51:09;;;;;;;3.35;1.10;;;;;;;1.13;87.20;96468.28;2070012;28;20640;-66
2022/02/20 00:52:10;;;;;;;6.78;1.42;;;;;;;1.18;87.56;96476.72;2070310;28;20207;-66
2022/02/20 00:53:12;;;;;;;5.13;1.15;;;;;;;1.19;88.06;96493.88;2071510;28;20198;-66
2022/02/20 00:54:13;;;;;;;5.90;1.17;;;;;;;1.08;87.56;96467.59;2071213;28;20198;-66
2022/02/20 00:55:15;;;;;;;5.00;1.35;;;;;;;1.20;87.78;96490.41;2071085;28;20205;-66
2022/02/20 00:56:17;;;;;;;3.65;1.00;;;;;;;1.19;87.52;96483.56;2071677;28;20198;-67
2022/02/20 00:57:20;;;;;;;3.22;1.40;;;;;;;1.21;87.62;96484.34;2070656;28;20264;-66
2022/02/20 00:58:22;;;;;;;9.05;1.35;;;;;;;1.24;87.38;96486.00;2071791;28;20202;-66
2022/02/20 00:59:23;;;;;;;7.18;1.20;;;;;;;1.21;87.67;96481.75;2071829;28;20232;-67
2022/02/20 01:00:25;;;;;;;6.80;2.17;;;;;;;1.21;87.56;96486.94;2071206;28;20562;-66
2022/02/20 01:01:26;;;;;;;4.85;1.50;;;;;;;1.31;87.00;96488.34;2072194;28;20201;-67
2022/02/20 01:02:28;;;;;;;3.55;0.93;;;;;;;1.08;86.94;96483.94;2069533;28;20207;-66
2022/02/20 01:03:30;;;;;;;6.22;1.20;;;;;;;1.30;86.94;96488.38;2079503;28;20690;-66
2022/02/20 01:04:31;;;;;;;6.65;1.25;;;;;;;1.35;86.60;96507.09;2078751;28;20235;-66
2022/02/20 01:05:33;;;;;;;6.45;1.48;;;;;;;1.31;86.38;96485.75;2071438;28;20224;-66
2022/02/20 01:06:34;;;;;;;6.32;1.45;;;;;;;1.29;86.63;96484.09;2071691;28;20194;-67
2022/02/20 01:07:36;;;;;;;5.13;1.27;;;;;;;1.30;86.65;96496.94;2070393;28;20212;-66
2022/02/20 01:08:37;;;;;;;9.98;1.25;;;;;;;1.38;86.03;96507.84;2074204;28;20194;-66
2022/02/20 01:09:39;;;;;;;10.02;1.27;;;;;;;1.35;86.04;96517.44;2072089;28;20303;-66
2022/02/20 01:10:40;;;;;;;3.05;1.00;;;;;;;1.25;85.92;96482.50;2075972;28;20205;-66
2022/02/20 01:11:42;;;;;;;2.47;1.17;;;;;;;1.41;85.36;96506.91;2075373;28;20208;-67
2022/02/20 01:12:44;;;;;;;3.70;0.98;;;;;;;1.36;86.09;96525.13;2071281;28;20747;-66
2022/02/20 01:13:46;;;;;;;7.10;1.50;;;;;;;1.35;86.04;96499.38;2071657;28;20681;-66
2022/02/20 01:14:48;;;;;;;6.50;1.23;;;;;;;1.23;85.32;96479.97;2071079;28;20222;-66
2022/02/20 01:15:50;;;;;;;4.18;1.35;;;;;;;1.34;85.21;96490.78;2070855;28;20212;-66
2022/02/20 01:16:51;;;;;;;4.50;1.30;;;;;;;1.48;85.81;96510.13;2071483;28;20202;-67
2022/02/20 01:17:53;;;;;;;2.60;1.33;;;;;;;1.38;85.11;96478.63;2070321;28;20193;-66
2022/02/20 01:18:54;;;;;;;6.80;1.20;;;;;;;1.50;84.97;96514.34;2067362;28;20198;-66
2022/02/20 01:19:56;;;;;;;8.93;1.40;;;;;;;1.44;84.62;96506.81;2068154;28;20296;-66
2022/02/20 01:20:57;;;;;;;3.63;1.15;;;;;;;1.54;84.73;96515.91;2069425;28;20603;-66
2022/02/20 01:21:59;;;;;;;2.90;0.88;;;;;;;1.46;84.28;96501.59;2063249;28;20237;-67
2022/02/20 01:23:01;;;;;;;6.03;1.30;;;;;;;1.47;84.66;96500.69;2063693;28;20198;-66
2022/02/20 01:24:02;;;;;;;4.68;1.40;;;;;;;1.61;84.71;96518.28;2070361;28;20230;-66
2022/02/20 01:25:05;;;;;;;5.18;1.30;;;;;;;1.66;84.35;96509.47;2071397;28;20248;-66
2022/02/20 01:26:07;;;;;;;6.95;1.27;;;;;;;1.29;83.72;96453.13;2072096;28;20232;-66
2022/02/20 01:27:09;;;;;;;8.10;2.13;;;;;;;1.64;83.88;96516.44;2072094;28;20768;-66
2022/02/20 01:28:11;;;;;;;5.05;1.50;;;;;;;1.21;84.07;96440.50;2072172;28;20201;-66
2022/02/20 01:29:13;;;;;;;2.75;0.90;;;;;;;1.56;83.78;96503.78;2070692;28;20687;-66
2022/02/20 01:30:15;;;;;;;5.00;1.00;;;;;;;1.51;84.01;96491.94;2072031;28;20221;-66
2022/02/20 01:31:16;;;;;;;2.05;1.05;;;;;;;1.71;83.49;96532.59;2071378;28;20194;-67
2022/02/20 01:32:18;;;;;;;4.25;1.40;;;;;;;1.66;83.54;96508.66;2075822;28;20205;-66
2022/02/20 01:33:19;;;;;;;8.95;1.58;;;;;;;1.74;83.28;96517.78;2067339;28;20208;-67
2022/02/20 01:34:21;;;;;;;5.55;2.25;;;;;;;1.76;83.09;96533.25;2070850;28;20213;-67
2022/02/20 01:35:23;;;;;;;2.90;1.17;;;;;;;1.75;83.27;96521.25;2071775;28;20202;-66
2022/02/20 01:36:25;;;;;;;4.20;1.10;;;;;;;1.77;83.14;96524.63;2071602;28;20205;-66
2022/02/20 01:37:26;;;;;;;7.47;1.15;;;;;;;1.83;82.76;96528.72;2071256;28;20225;-66
2022/02/20 01:38:28;;;;;;;12.65;1.20;;;;;;;1.83;82.68;96508.91;2071568;28;20685;-67
2022/02/20 01:39:29;;;;;;;3.65;1.15;;;;;;;1.76;82.64;96504.84;2071343;28;20471;-66
2022/02/20 01:40:31;;;;;;;6.30;1.45;;;;;;;1.72;82.86;96498.94;2072095;28;20395;-67
2022/02/20 01:41:32;;;;;;;7.28;1.30;;;;;;;1.84;82.37;96510.56;2070732;28;20198;-66
2022/02/20 01:42:34;;;;;;;5.93;1.15;;;;;;;1.89;82.23;96521.59;2071920;28;20224;-66
2022/02/20 01:43:35;;;;;;;5.75;1.20;;;;;;;1.74;82.20;96488.56;2072240;28;20205;-66
2022/02/20 01:44:37;;;;;;;6.70;1.48;;;;;;;1.84;81.98;96507.16;2071489;28;20589;-67
2022/02/20 01:45:40;;;;;;;2.88;1.13;;;;;;;1.86;82.13;96511.38;2071413;28;20700;-67
2022/02/20 01:46:46;;;;;;;4.57;1.10;;;;;;;1.84;82.24;96502.81;2071925;28;20198;-66
2022/02/20 01:47:47;;;;;;;5.80;1.35;;;;;;;1.91;82.06;96490.56;2071907;28;20205;-67
2022/02/20 01:48:49;;;;;;;3.63;1.05;;;;;;;1.98;81.67;96517.84;2071943;28;20202;-67
2022/02/20 01:49:50;;;;;;;7.43;1.50;;;;;;;1.94;81.93;96506.78;2070992;28;20225;-66
2022/02/20 01:50:52;;;;;;;5.13;1.35;;;;;;;1.92;82.17;96511.16;2070732;28;20237;-67
2022/02/20 01:51:53;;;;;;;6.25;1.25;;;;;;;2.00;81.57;96505.72;2070502;28;20220;-67
2022/02/20 01:52:55;;;;;;;7.70;1.17;;;;;;;2.06;81.41;96522.72;2071766;28;20395;-67
2022/02/20 01:53:56;;;;;;;9.68;1.70;;;;;;;2.01;81.69;96517.72;2071909;28;20523;-66
2022/02/20 01:54:58;;;;;;;6.30;1.10;;;;;;;1.90;81.72;96494.00;2070844;28;20740;-66
2022/02/20 01:56:02;;;;;;;7.15;0.80;;;;;;;2.05;81.48;96511.56;2070709;28;20687;-66
2022/02/20 01:57:04;;;;;;;3.95;1.25;;;;;;;2.11;80.77;96526.00;2071086;28;20194;-66
2022/02/20 01:58:06;;;;;;;2.15;1.08;;;;;;;2.13;81.17;96517.28;2063230;28;20201;-66
2022/02/20 01:59:07;;;;;;;11.60;1.33;;;;;;;2.08;81.25;96521.78;2070897;28;20463;-67
2022/02/20 02:00:13;;;;;;;6.10;1.23;;;;;;;2.09;81.33;96518.28;2071907;28;20557;-67
2022/02/20 02:01:15;;;;;;;2.45;0.85;;;;;;;2.06;81.55;96508.09;2071714;28;20233;-67
2022/02/20 02:02:19;;;;;;;6.97;1.40;;;;;;;1.95;81.73;96494.69;2071692;28;20225;-66
2022/02/20 02:03:21;;;;;;;6.75;1.33;;;;;;;2.06;81.65;96523.59;2071411;28;20281;-67
2022/02/20 02:04:23;;;;;;;6.50;1.45;;;;;;;2.13;81.57;96530.19;2077914;28;20208;-67
2022/02/20 02:05:26;;;;;;;5.60;1.30;;;;;;;2.18;80.66;96512.78;2078256;28;20560;-66
2022/02/20 02:06:31;;;;;;;6.90;1.30;;;;;;;2.13;81.15;96517.28;2070938;28;20198;-67
2022/02/20 02:07:33;;;;;;;5.45;1.00;;;;;;;2.04;81.96;96504.72;2071371;28;20466;-67
2022/02/20 02:08:35;;;;;;;13.68;1.95;;;;;;;2.14;82.00;96521.56;2070118;28;20202;-67
2022/02/20 02:09:36;;;;;;;2.95;1.15;;;;;;;1.97;82.34;96501.50;2070777;28;20218;-67
2022/02/20 02:10:38;;;;;;;2.40;1.20;;;;;;;2.06;82.29;96504.63;2071128;28;20554;-66
2022/02/20 02:11:41;;;;;;;11.20;1.20;;;;;;;2.07;82.23;96522.66;2071046;28;20193;-67
2022/02/20 02:12:43;;;;;;;3.90;1.17;;;;;;;2.20;81.48;96535.16;2070274;28;20525;-67
2022/02/20 02:13:44;;;;;;;7.82;1.45;;;;;;;2.05;81.41;96498.63;2070340;28;20197;-67
2022/02/20 02:15:11;;;;;;;7.43;0.90;;;;;;;2.24;81.75;96518.66;2071312;28;20344;-67
2022/02/20 02:16:13;;;;;;;11.77;1.50;;;;;;;2.11;81.01;96498.41;2069397;28;20574;-67
2022/02/20 02:17:14;;;;;;;12.13;1.35;;;;;;;2.20;81.47;96524.81;2069924;28;20231;-66
2022/02/20 02:18:17;;;;;;;5.65;1.20;;;;;;;2.24;81.21;96523.81;2070568;28;20310;-67
2022/02/20 02:19:18;;;;;;;7.72;1.52;;;;;;;2.27;81.08;96527.09;2070714;28;20329;-67
2022/02/20 02:20:20;;;;;;;8.68;1.10;;;;;;;2.23;81.59;96519.53;2071854;28;20418;-67
2022/02/20 02:21:21;;;;;;;5.88;1.30;;;;;;;2.24;80.94;96516.91;2071545;28;20206;-67
2022/02/20 02:22:25;;;;;;;3.22;1.30;;;;;;;2.31;80.86;96522.66;2071097;28;20206;-67
2022/02/20 02:23:26;;;;;;;3.95;1.00;;;;;;;2.04;80.62;96476.28;2071200;28;20197;-67
2022/02/20 02:24:28;;;;;;;6.45;1.40;;;;;;;2.33;80.88;96533.78;2070662;28;20225;-67
2022/02/20 02:25:33;;;;;;;8.82;1.38;;;;;;;2.28;80.87;96512.47;2070483;28;20194;-67
2022/02/20 02:26:34;;;;;;;5.13;0.90;;;;;;;2.32;80.80;96516.63;2071158;28;20202;-67
2022/02/20 02:27:36;;;;;;;3.65;1.42;;;;;;;2.27;81.02;96508.19;2071221;28;20241;-67
2022/02/20 02:28:37;;;;;;;9.90;1.70;;;;;;;2.29;81.08;96512.38;2071897;28;20209;-67
2022/02/20 02:29:44;;;;;;;3.60;1.00;;;;;;;2.19;81.03;96492.97;2069216;28;20217;-67
2022/02/20 02:30:46;;;;;;;4.72;1.05;;;;;;;2.30;81.27;96511.50;2071194;28;20230;-67
2022/02/20 02:31:48;;;;;;;6.82;1.10;;;;;;;2.21;81.14;96495.50;2070442;28;20233;-67
2022/02/20 02:32:49;;;;;;;9.15;1.83;;;;;;;2.31;81.09;96520.09;2073376;28;20201;-67
2022/02/20 02:33:51;;;;;;;4.43;1.17;;;;;;;2.25;81.50;96507.41;2072936;28;20209;-67
2022/02/20 02:34:52;;;;;;;4.78;1.00;;;;;;;2.34;81.37;96514.81;2069835;28;20696;-67
2022/02/20 02:35:55;;;;;;;3.50;1.10;;;;;;;2.35;81.09;96524.25;2069174;28;20295;-67
2022/02/20 02:36:57;;;;;;;11.48;1.20;;;;;;;2.22;81.22;96502.34;2071085;28;20205;-67
2022/02/20 02:37:59;;;;;;;9.60;1.33;;;;;;;2.40;81.86;96513.75;2071643;28;20510;-67
2022/02/20 02:39:00;;;;;;;4.03;0.98;;;;;;;2.26;82.03;96509.09;2071620;28;20584;-67
2022/02/20 02:40:02;;;;;;;9.80;1.67;;;;;;;2.29;82.85;96521.88;2070523;28;20228;-67
2022/02/20 02:41:06;;;;;;;3.55;1.20;;;;;;;2.37;82.38;96514.69;2070828;28;20208;-67
2022/02/20 02:42:09;;;;;;;6.25;1.20;;;;;;;2.27;82.72;96506.44;2071457;28;20328;-67
2022/02/20 02:43:11;;;;;;;5.13;1.23;;;;;;;2.16;83.49;96499.09;2069826;28;20201;-67
2022/02/20 02:44:13;;;;;;;3.78;0.93;;;;;;;2.15;84.21;96499.13;2071058;28;20201;-67
2022/02/20 02:45:15;;;;;;;5.65;1.42;;;;;;;2.27;83.98;96518.50;2070299;28;20203;-67
2022/02/20 02:46:17;;;;;;;4.13;1.20;;;;;;;2.11;83.47;96490.66;2068775;28;20210;-67
2022/02/20 02:47:18;;;;;;;2.45;1.30;;;;;;;2.19;83.24;96503.28;2068996;28;20209;-67
2022/02/20 02:48:20;;;;;;;2.47;0.80;;;;;;;2.29;83.67;96522.72;2069559;28;20198;-67
2022/02/20 02:49:21;;;;;;;5.30;0.98;;;;;;;2.34;83.20;96522.56;2070647;28;20214;-67
2022/02/20 02:50:23;;;;;;;12.80;1.20;;;;;;;2.31;83.57;96527.84;2070185;28;20680;-67
2022/02/20 02:51:26;;;;;;;6.60;1.30;;;;;;;2.34;82.96;96518.22;2071434;28;20491;-67
2022/02/20 02:52:27;;;;;;;4.60;1.02;;;;;;;2.09;82.51;96471.78;2069836;28;20190;-67
2022/02/20 02:53:30;;;;;;;4.50;1.05;;;;;;;2.34;83.02;96507.91;2068854;28;20209;-67
2022/02/20 02:54:31;;;;;;;4.13;1.17;;;;;;;2.30;82.85;96495.16;2069522;28;20256;-68
2022/02/20 02:55:33;;;;;;;6.22;1.00;;;;;;;2.39;82.89;96523.22;2070735;28;20205;-67
2022/02/20 02:56:35;;;;;;;5.65;1.48;;;;;;;2.44;82.44;96513.56;2070921;28;20186;-67
2022/02/20 02:57:37;;;;;;;14.05;1.38;;;;;;;2.21;82.46;96482.56;2071608;28;20211;-67
2022/02/20 02:58:39;;;;;;;7.68;1.17;;;;;;;2.29;82.69;96506.38;2070957;28;20667;-67
2022/02/20 02:59:40;;;;;;;5.72;1.05;;;;;;;2.25;82.72;96484.13;2069491;28;20229;-67
2022/02/20 03:00:42;;;;;;;6.68;1.10;;;;;;;2.46;82.61;96511.75;2062836;28;20206;-67
2022/02/20 03:01:45;;;;;;;3.20;1.08;;;;;;;2.24;82.73;96475.56;2059759;28;20470;-67
2022/02/20 03:02:46;;;;;;;4.85;1.17;;;;;;;2.49;82.84;96526.31;2068310;28;20292;-67
2022/02/20 03:03:47;;;;;;;19.20;1.58;;;;;;;2.48;83.41;96524.63;2070992;28;20194;-67
2022/02/20 03:04:49;;;;;;;3.53;0.90;;;;;;;2.45;83.63;96530.78;2071240;28;20356;-67
2022/02/20 03:05:52;;;;;;;5.47;1.00;;;;;;;2.40;83.83;96524.91;2069452;28;20198;-66
2022/02/20 03:06:53;;;;;;;5.85;0.90;;;;;;;2.44;84.23;96534.25;2069996;28;20248;-67
2022/02/20 03:07:55;;;;;;;10.63;1.10;;;;;;;2.40;84.21;96524.91;2069282;28;20198;-67
2022/02/20 03:08:57;;;;;;;1.80;0.80;;;;;;;2.48;83.48;96543.56;2070144;28;20206;-67
2022/02/20 03:09:58;;;;;;;6.38;1.33;;;;;;;2.51;83.97;96540.88;2070390;28;20288;-66
2022/02/20 03:11:00;;;;;;;3.20;0.93;;;;;;;2.47;83.75;96544.47;2070546;28;20555;-66
2022/02/20 03:12:02;;;;;;;4.75;1.00;;;;;;;2.44;83.92;96531.66;2071258;28;20204;-67
2022/02/20 03:13:04;;;;;;;4.57;1.25;;;;;;;2.40;83.92;96530.09;2070094;28;20209;-67
2022/02/20 03:14:06;;;;;;;4.13;1.38;;;;;;;2.43;83.97;96531.72;2067341;28;20709;-67
2022/02/20 03:15:08;;;;;;;3.08;1.00;;;;;;;2.39;83.22;96512.88;2068031;28;20218;-67
2022/02/20 03:16:10;;;;;;;5.57;1.45;;;;;;;2.57;83.43;96530.31;2068777;28;20544;-67
2022/02/20 03:17:11;;;;;;;9.35;1.20;;;;;;;2.54;83.63;96530.41;2069728;28;20224;-67
2022/02/20 03:18:13;;;;;;;7.30;1.08;;;;;;;2.54;84.39;96545.91;2071246;28;20208;-67
2022/02/20 03:19:14;;;;;;;6.95;1.10;;;;;;;2.53;84.37;96554.59;2068282;28;20206;-67
2022/02/20 03:20:16;;;;;;;3.17;0.80;;;;;;;2.50;84.58;96536.59;2067794;28;20202;-66
2022/02/20 03:21:18;;;;;;;3.78;1.25;;;;;;;2.46;85.03;96529.84;2071365;28;20194;-67
2022/02/20 03:22:19;;;;;;;3.33;1.15;;;;;;;2.42;84.83;96538.63;2071006;28;20204;-67
2022/02/20 03:23:21;;;;;;;2.08;1.00;;;;;;;2.51;84.83;96545.19;2068149;28;20705;-67
2022/02/20 03:24:22;;;;;;;5.68;1.50;;;;;;;2.51;84.83;96551.22;2070068;28;20209;-67
2022/02/20 03:25:24;;;;;;;6.97;1.48;;;;;;;2.42;85.14;96540.38;2071054;28;20202;-67
2022/02/20 03:26:25;;;;;;;6.13;0.90;;;;;;;2.42;85.05;96538.63;2070408;28;20426;-67
2022/02/20 03:27:27;;;;;;;5.97;1.23;;;;;;;2.43;84.68;96536.88;2070469;28;20197;-68
2022/02/20 03:28:28;;;;;;;5.47;0.90;;;;;;;2.33;85.04;96521.72;2070418;28;20205;-67
2022/02/20 03:29:30;;;;;;;6.55;1.10;;;;;;;2.52;84.09;96552.88;2070138;28;20547;-67
2022/02/20 03:30:31;;;;;;;8.15;1.10;;;;;;;2.54;84.07;96555.41;2070967;28;20216;-67
2022/02/20 03:31:33;;;;;;;2.88;1.02;;;;;;;2.54;84.17;96551.09;2071083;28;20539;-67
2022/02/20 03:32:34;;;;;;;6.43;1.20;;;;;;;2.47;84.39;96559.13;2070566;28;20576;-65
2022/02/20 03:33:36;;;;;;;6.50;1.30;;;;;;;2.49;84.47;96558.19;2070954;28;20221;-67
2022/02/20 03:34:38;;;;;;;6.60;0.85;;;;;;;2.48;84.52;96566.84;2070343;28;20221;-66
2022/02/20 03:35:39;;;;;;;6.40;1.23;;;;;;;2.44;84.39;96554.91;2070518;28;20375;-66
2022/02/20 03:36:41;;;;;;;4.55;1.45;;;;;;;2.35;84.59;96552.66;2070814;28;20197;-67
2022/02/20 03:37:42;;;;;;;2.17;0.90;;;;;;;2.52;84.94;96580.50;2069054;28;20202;-67
2022/02/20 03:38:44;;;;;;;10.20;1.35;;;;;;;2.49;85.15;96568.53;2062604;28;20608;-67
2022/02/20 03:39:45;;;;;;;4.00;0.88;;;;;;;2.47;85.40;96578.09;2069455;28;20292;-66
2022/02/20 03:40:47;;;;;;;5.90;0.98;;;;;;;2.44;85.78;96580.78;2070213;28;20202;-66
2022/02/20 03:41:49;;;;;;;4.40;1.35;;;;;;;2.45;85.99;96572.13;2070458;28;20244;-67
2022/02/20 03:42:51;;;;;;;7.03;1.23;;;;;;;2.40;86.32;96570.63;2070342;28;20205;-66
2022/02/20 03:43:52;;;;;;;2.20;0.90;;;;;;;2.47;86.00;96583.25;2070466;28;20198;-67
2022/02/20 03:44:54;;;;;;;8.43;1.00;;;;;;;2.41;86.66;96586.06;2070542;28;20241;-66
2022/02/20 03:45:56;;;;;;;4.65;1.48;;;;;;;2.31;86.93;96556.25;2068908;28;20195;-67
2022/02/20 03:46:57;;;;;;;4.45;0.95;;;;;;;2.36;87.37;96583.63;2070344;28;20218;-67
2022/02/20 03:47:59;;;;;;;6.60;1.08;;;;;;;2.27;87.35;96562.44;2071154;28;20194;-67
2022/02/20 03:49:01;;;;;;;8.13;1.50;;;;;;;2.31;87.73;96571.78;2069307;28;20198;-67
2022/02/20 03:50:04;;;;;;;6.78;1.23;;;;;;;2.33;87.73;96585.47;2069919;28;20228;-67
2022/02/20 03:51:06;;;;;;;5.07;0.90;;;;;;;2.29;88.03;96576.16;2071799;28;20202;-66
2022/02/20 03:52:07;;;;;;;4.60;1.27;;;;;;;2.12;88.10;96550.94;2070764;28;20194;-67
2022/02/20 03:53:09;;;;;;;3.55;0.90;;;;;;;2.29;88.17;96581.31;2071467;28;20209;-67
2022/02/20 03:54:11;;;;;;;3.58;0.85;;;;;;;2.10;88.55;96561.31;2070560;28;20224;-67
2022/02/20 03:55:13;;;;;;;5.10;1.00;;;;;;;2.27;88.44;96580.53;2072527;28;20659;-67
2022/02/20 03:56:15;;;;;;;3.13;0.70;;;;;;;2.27;88.50;96583.97;2070500;28;20195;-67
2022/02/20 03:57:16;;;;;;;7.07;1.23;;;;;;;2.11;88.82;96551.81;2071065;28;20194;-67
2022/02/20 03:58:18;;;;;;;2.10;0.80;;;;;;;2.25;89.08;96579.75;2072069;28;20193;-67
2022/02/20 03:59:19;;;;;;;1.70;0.80;;;;;;;2.25;89.31;96569.41;2071700;28;20215;-66
2022/02/20 04:00:24;;;;;;;3.85;0.90;;;;;;;2.20;89.33;96573.94;2071755;28;20202;-66
2022/02/20 04:01:26;;;;;;;2.20;1.00;;;;;;;2.20;89.09;96574.75;2076398;28;20727;-67
2022/02/20 04:02:29;;;;;;;2.38;0.90;;;;;;;2.15;89.10;96567.16;2077419;28;20190;-67
2022/02/20 04:03:31;;;;;;;14.65;1.20;;;;;;;2.20;89.20;96566.19;2070052;28;20237;-67
2022/02/20 04:04:33;;;;;;;7.55;1.00;;;;;;;2.22;89.42;96575.53;2070977;28;20226;-67
2022/02/20 04:05:35;;;;;;;9.77;1.70;;;;;;;2.21;89.33;96573.84;2071411;28;20206;-67
2022/02/20 04:06:37;;;;;;;3.60;1.60;;;;;;;2.20;89.66;96571.34;2069263;28;20206;-67
2022/02/20 04:07:38;;;;;;;15.65;1.13;;;;;;;2.25;89.01;96574.59;2070297;28;20203;-67
2022/02/20 04:08:40;;;;;;;3.70;0.82;;;;;;;2.07;89.40;96561.41;2070743;28;20205;-67
2022/02/20 04:09:42;;;;;;;7.93;1.17;;;;;;;2.14;89.35;96572.41;2070739;28;20229;-66
2022/02/20 04:10:43;;;;;;;3.00;0.95;;;;;;;2.17;89.30;96585.19;2070922;28;20237;-67
2022/02/20 04:11:45;;;;;;;6.55;1.65;;;;;;;2.17;88.98;96586.03;2070760;28;20193;-67
2022/02/20 04:12:47;;;;;;;10.10;1.05;;;;;;;2.10;89.71;96587.16;2071292;28;20201;-67
2022/02/20 04:13:48;;;;;;;6.50;0.90;;;;;;;2.15;90.17;96595.56;2072249;28;20201;-67
2022/02/20 04:14:49;;;;;;;4.90;1.00;;;;;;;2.17;90.09;96600.69;2073965;28;20747;-66
2022/02/20 04:15:51;;;;;;;2.45;1.02;;;;;;;2.04;90.03;96577.06;2075643;28;20452;-66
2022/02/20 04:16:53;;;;;;;3.95;0.98;;;;;;;1.99;90.05;96563.44;2071163;28;20186;-67
2022/02/20 04:17:54;;;;;;;2.78;0.80;;;;;;;1.96;90.19;96569.56;2071188;28;20198;-67
2022/02/20 04:18:55;;;;;;;3.30;0.90;;;;;;;1.94;90.34;96567.91;2071741;28;20210;-67
2022/02/20 04:19:57;;;;;;;2.35;0.85;;;;;;;2.12;90.50;96602.63;2070896;28;20466;-67
2022/02/20 04:20:59;;;;;;;7.30;1.40;;;;;;;1.95;90.50;96572.19;2071687;28;20198;-67
2022/02/20 04:22:00;;;;;;;2.03;0.80;;;;;;;2.03;90.56;96580.50;2017039;28;1592525;-67
2022/02/20 04:23:02;;;;;;;2.78;0.95;;;;;;;2.11;90.92;96613.84;2071790;28;20197;-66
2022/02/20 04:24:04;;;;;;;11.60;1.52;;;;;;;1.93;90.93;96577.41;2071980;28;20553;-67
2022/02/20 04:25:06;;;;;;;12.73;1.10;;;;;;;2.07;91.01;96604.50;2072652;28;20213;-67
2022/02/20 04:26:07;;;;;;;4.25;1.00;;;;;;;1.95;90.81;96583.38;2071419;28;20585;-67
2022/02/20 04:27:09;;;;;;;2.65;1.00;;;;;;;2.06;90.53;96601.09;2071636;28;20210;-67
2022/02/20 04:28:11;;;;;;;11.85;1.17;;;;;;;2.06;90.81;96597.63;2072434;28;20197;-67
2022/02/20 04:29:15;;;;;;;1.88;0.90;;;;;;;2.13;90.86;96612.88;2071127;28;20333;-67
2022/02/20 04:30:18;;;;;;;1.35;0.85;;;;;;;1.89;90.83;96556.91;2071595;28;20205;-67
2022/02/20 04:31:20;;;;;;;6.25;1.05;;;;;;;1.93;90.76;96574.81;2070494;28;20391;-67
2022/02/20 04:32:22;;;;;;;4.40;0.90;;;;;;;2.13;91.11;96607.72;2071855;28;20197;-67
2022/02/20 04:33:24;;;;;;;6.70;1.42;;;;;;;2.13;91.13;96612.88;2070862;28;20205;-67
2022/02/20 04:34:25;;;;;;;11.10;1.58;;;;;;;2.10;91.35;96602.66;2070232;28;20218;-67
2022/02/20 04:35:27;;;;;;;8.75;1.05;;;;;;;1.94;91.25;96578.25;2072299;28;20197;-67
2022/02/20 04:36:29;;;;;;;2.83;0.70;;;;;;;2.12;91.19;96611.19;2072592;28;20213;-67
2022/02/20 04:37:30;;;;;;;3.17;0.82;;;;;;;2.13;91.33;96607.72;2071772;28;20660;-67
2022/02/20 04:38:32;;;;;;;1.70;0.70;;;;;;;2.12;91.55;96621.53;2070655;28;20194;-66
2022/02/20 04:39:34;;;;;;;3.10;0.80;;;;;;;2.09;91.46;96610.47;2071025;28;20218;-66
2022/02/20 04:40:35;;;;;;;4.50;0.80;;;;;;;2.12;91.62;96616.38;2071326;28;20192;-67
2022/02/20 04:41:37;;;;;;;4.72;1.45;;;;;;;2.15;91.53;96616.25;2072118;28;20202;-67
2022/02/20 04:42:38;;;;;;;2.70;0.80;;;;;;;2.15;91.76;96615.41;2071771;28;20224;-66
2022/02/20 04:43:40;;;;;;;3.85;0.80;;;;;;;1.89;91.76;96577.56;2071407;28;20768;-67
2022/02/20 04:44:41;;;;;;;9.02;1.10;;;;;;;2.13;91.81;96615.47;2070804;28;20304;-67
2022/02/20 04:45:43;;;;;;;4.85;1.08;;;;;;;2.14;91.78;96624.06;2071623;28;20558;-67
2022/02/20 04:46:44;;;;;;;1.48;1.10;;;;;;;2.12;91.79;96618.97;2072314;28;20204;-67
2022/02/20 04:47:46;;;;;;;2.35;0.90;;;;;;;1.97;91.83;96596.22;2072392;28;20340;-67
2022/02/20 04:48:47;;;;;;;7.03;1.05;;;;;;;2.09;91.90;96621.63;2070574;28;20198;-66
2022/02/20 04:49:49;;;;;;;4.78;1.13;;;;;;;2.06;92.21;96615.72;2071473;28;20663;-67
2022/02/20 04:50:51;;;;;;;2.90;0.65;;;;;;;2.11;92.47;96624.16;2063435;28;20209;-67
2022/02/20 04:51:52;;;;;;;6.85;1.08;;;;;;;2.06;92.97;96621.75;2063839;28;20205;-68
2022/02/20 04:52:53;;;;;;;1.95;0.90;;;;;;;2.05;92.96;96629.56;2071724;28;20209;-67
2022/02/20 04:53:55;;;;;;;0.98;0.77;;;;;;;2.06;93.35;96621.75;2070741;28;20201;-67
2022/02/20 04:54:57;;;;;;;1.77;0.80;;;;;;;2.05;92.85;96622.63;2070089;28;20230;-67